Terminal Aerodrome Forecast
Issued by NWS Amarillo, TX

Home | Current Version | Previous Version | Text Only | Print | Product List | Glossary On
Versions: 1 2 3 4 5 6 7 8 9 10 11 12 13 14 15 16 17 18 19 20 21 22 23 24 25
710
FTUS44 KAMA 171722
TAFDHT
TAF
KDHT 171722Z 1718/1818 22008KT P6SM SKC
     FM180400 18007KT P6SM SCT015 OVC020
     FM180700 21007KT 4SM BR OVC008
     FM181600 21008KT P6SM SKC=

USA.gov is the U.S. government's official web portal to all federal, state and local government web resources and services.